createdAt,value
2018-03-19T00:00:02.847Z,34.9
2018-03-19T00:05:10.597Z,35
2018-03-19T00:10:05.839Z,35.4
2018-03-19T00:15:07.635Z,35.8
2018-03-19T00:20:28.323Z,35.8
2018-03-19T00:25:08.600Z,36.2
2018-03-19T00:30:02.891Z,36.2
2018-03-19T00:35:05.598Z,36.8
2018-03-19T00:40:05.910Z,37
2018-03-19T00:45:02.645Z,37
2018-03-19T00:50:05.468Z,37.1
2018-03-19T00:55:03.210Z,37.1
2018-03-19T01:00:08.505Z,37.5
2018-03-19T01:05:05.517Z,37.9
2018-03-19T01:10:03.368Z,37.9
2018-03-19T01:15:12.732Z,38.3
2018-03-19T01:20:03.086Z,38.3
2018-03-19T01:25:03.324Z,38.5
2018-03-19T01:30:02.708Z,38.9
2018-03-19T01:35:07.876Z,39.6
2018-03-19T01:40:02.630Z,39.6
2018-03-19T01:45:02.823Z,39.8
2018-03-19T01:50:10.709Z,40.4
2018-03-19T01:55:10.903Z,40.4
2018-03-19T02:00:03.167Z,40.5
2018-03-19T02:05:03.492Z,40.5
2018-03-19T02:10:18.449Z,41.1
2018-03-19T02:15:08.580Z,41.2
2018-03-19T02:20:08.196Z,41.4
2018-03-19T02:25:05.817Z,42
2018-03-19T02:30:03.151Z,41.9
2018-03-19T02:35:10.894Z,42.6
2018-03-19T02:40:21.016Z,42.8
2018-03-19T02:45:05.113Z,43.2
2018-03-19T02:50:03.380Z,43.2
2018-03-19T02:55:05.158Z,43.9
2018-03-19T03:00:16.101Z,44.4
2018-03-19T03:05:17.829Z,44.6
2018-03-19T03:10:05.112Z,44.7
2018-03-19T03:15:07.829Z,44.7
2018-03-19T03:20:03.137Z,44.7
2018-03-19T03:25:03.420Z,45.1
2018-03-19T03:30:12.916Z,45.6
2018-03-19T03:35:05.466Z,45.8
2018-03-19T03:40:28.515Z,46
2018-03-19T03:45:22.996Z,46.3
2018-03-19T03:50:03.333Z,46.3
2018-03-19T03:55:08.597Z,46.7
2018-03-19T04:00:05.359Z,46.7
2018-03-19T04:05:03.067Z,46.6
2018-03-19T04:10:07.835Z,46.9
2018-03-19T04:15:02.955Z,47
2018-03-19T04:20:05.859Z,47.4
2018-03-19T04:25:05.104Z,47.5
2018-03-19T04:30:03.721Z,47.4
2018-03-19T04:35:05.618Z,47.9
2018-03-19T04:40:08.700Z,48.2
2018-03-19T04:45:13.277Z,48.2
2018-03-19T04:50:10.436Z,48.2
2018-03-19T04:55:03.337Z,48.2
2018-03-19T05:00:05.513Z,48.4
2018-03-19T05:05:05.875Z,48.4
2018-03-19T05:10:08.012Z,48.8
2018-03-19T05:15:28.670Z,49.2
2018-03-19T05:20:03.318Z,49.2
2018-03-19T05:25:05.385Z,49.4
2018-03-19T05:30:20.606Z,49.8
2018-03-19T05:35:03.497Z,49.7
2018-03-19T05:40:08.591Z,49.6
2018-03-19T05:45:03.069Z,49.6
2018-03-19T05:50:08.704Z,49.7
2018-03-19T05:55:05.563Z,50.4
2018-03-19T06:00:03.192Z,50.4
2018-03-19T06:05:05.276Z,49.7
2018-03-19T06:10:03.330Z,49.7
2018-03-19T06:15:23.073Z,49.4
2018-03-19T06:20:06.223Z,49.2
2018-03-19T06:25:08.188Z,48.9
2018-03-19T06:30:10.357Z,48.4
2018-03-19T06:35:03.277Z,48.4
2018-03-19T06:40:10.888Z,46.8
2018-03-19T06:45:05.294Z,46.8
2018-03-19T06:50:05.419Z,46.8
2018-03-19T06:55:03.420Z,46.7
2018-03-19T07:00:02.989Z,46.5
2018-03-19T07:05:08.574Z,46
2018-03-19T07:10:02.745Z,46
2018-03-19T07:15:03.293Z,45.6
2018-03-19T07:20:05.497Z,43.3
2018-03-19T07:25:03.487Z,43.3
2018-03-19T07:30:02.991Z,42
2018-03-19T07:35:06.084Z,40.7
2018-03-19T07:40:03.272Z,40.7
2018-03-19T07:45:06.161Z,39.9
2018-03-19T07:50:02.781Z,39.9
2018-03-19T07:55:03.169Z,38.6
2018-03-19T08:00:02.778Z,38.2
2018-03-19T08:05:08.316Z,35.2
2018-03-19T08:10:03.326Z,35.2
2018-03-19T08:15:02.981Z,35.5
2018-03-19T08:20:03.669Z,35.1
2018-03-19T08:25:26.006Z,33.7
2018-03-19T08:30:06.175Z,32.9
2018-03-19T08:35:03.134Z,32.8
2018-03-19T08:40:05.687Z,33.2
2018-03-19T08:45:05.236Z,32.4
2018-03-19T08:50:02.817Z,32.4
2018-03-19T08:55:16.014Z,32.4
2018-03-19T09:00:13.699Z,31.9
2018-03-19T09:05:05.843Z,31.8
2018-03-19T09:10:05.505Z,31.3
2018-03-19T09:15:03.570Z,31.1
2018-03-19T09:20:05.749Z,31.7
2018-03-19T09:25:02.673Z,31.7
2018-03-19T09:30:05.846Z,30.2
2018-03-19T09:35:05.481Z,29.8
2018-03-19T09:40:03.511Z,29.8
2018-03-19T09:45:05.599Z,29.6
2018-03-19T09:50:03.217Z,29.5
2018-03-19T09:55:02.869Z,28.5
2018-03-19T10:00:03.451Z,27.9
2018-03-19T10:05:05.546Z,28.2
2018-03-19T10:10:03.559Z,28.2
2018-03-19T10:15:03.152Z,28.1
2018-03-19T10:20:02.942Z,27.6
2018-03-19T10:25:03.499Z,27.1
2018-03-19T10:30:08.202Z,27
2018-03-19T10:35:06.164Z,27.6
2018-03-19T10:40:03.256Z,27.5
2018-03-19T10:45:02.920Z,27.4
2018-03-19T10:50:06.041Z,26.4
2018-03-19T10:55:15.737Z,26.4
2018-03-19T11:00:05.922Z,26.6
2018-03-19T11:05:08.036Z,26.9
2018-03-19T11:10:10.694Z,25.7
2018-03-19T11:15:02.764Z,25.7
2018-03-19T11:20:06.006Z,26.2
2018-03-19T11:25:02.952Z,26.2
2018-03-19T11:30:03.510Z,25.7
2018-03-19T11:35:25.883Z,25.2
2018-03-19T11:40:03.154Z,25.2
2018-03-19T11:45:02.676Z,25.4
2018-03-19T11:50:03.243Z,25.2
2018-03-19T11:55:05.395Z,25.2
2018-03-19T12:00:15.674Z,25
2018-03-19T12:05:11.177Z,23.7
2018-03-19T12:10:08.274Z,24.5
2018-03-19T12:15:02.981Z,24.5
2018-03-19T12:20:03.646Z,25.1
2018-03-19T12:25:03.187Z,24.4
2018-03-19T12:30:02.888Z,22.6
2018-03-19T12:35:08.507Z,24.8
2018-03-19T12:40:13.720Z,23.7
2018-03-19T12:45:31.037Z,22.7
2018-03-19T12:50:06.131Z,24
2018-03-19T12:55:03.191Z,24
2018-03-19T13:00:02.801Z,22.1
2018-03-19T13:05:03.454Z,21.4
2018-03-19T13:10:16.308Z,20.6
2018-03-19T13:15:03.199Z,20.4
2018-03-19T13:20:02.895Z,19.4
2018-03-19T13:25:03.523Z,20.2
2018-03-19T13:30:03.127Z,20.8
2018-03-19T13:35:10.439Z,21.3
2018-03-19T13:40:06.281Z,21.8
2018-03-19T13:45:03.185Z,21.8
2018-03-19T13:50:20.530Z,20.4
2018-03-19T13:55:03.469Z,20.4
2018-03-19T14:00:05.657Z,21.4
2018-03-19T14:05:02.721Z,21.3
2018-03-19T14:10:30.698Z,21.4
2018-03-19T14:15:05.900Z,19.5
2018-03-19T14:20:23.886Z,20.1
2018-03-19T14:25:05.747Z,20.2
2018-03-19T14:30:08.481Z,19.5
2018-03-19T14:35:08.130Z,19.3
2018-03-19T14:40:10.889Z,18.3
2018-03-19T14:45:15.592Z,18.6
2018-03-19T14:50:05.880Z,18.5
2018-03-19T14:55:05.591Z,18.3
2018-03-19T15:00:08.345Z,18.3
2018-03-19T15:05:10.424Z,18
2018-03-19T15:10:03.521Z,18
2018-03-19T15:15:05.792Z,16.1
2018-03-19T15:20:06.131Z,15.6
2018-03-19T15:25:03.156Z,15.5
2018-03-19T15:30:07.876Z,17.1
2018-03-19T15:35:06.030Z,17.7
2018-03-19T15:40:13.289Z,17.5
2018-03-19T15:45:10.293Z,17.7
2018-03-19T15:50:08.013Z,17.4
2018-03-19T15:55:11.200Z,17.6
2018-03-19T16:00:02.843Z,17.6
2018-03-19T16:05:11.107Z,17.2
2018-03-19T16:10:08.303Z,17
2018-03-19T16:15:02.903Z,17
2018-03-19T16:20:03.683Z,18.8
2018-03-19T16:25:03.258Z,18.8
2018-03-19T16:30:05.471Z,20.4
2018-03-19T16:35:03.569Z,20.3
2018-03-19T16:40:05.280Z,22
2018-03-19T16:45:08.389Z,22.3
2018-03-19T16:50:03.026Z,21.1
2018-03-19T16:55:10.331Z,23.5
2018-03-19T17:00:05.490Z,24.4
2018-03-19T17:05:18.755Z,25.1
2018-03-19T17:10:20.591Z,25.5
2018-03-19T17:15:08.484Z,25.9
2018-03-19T17:20:05.771Z,26
2018-03-19T17:25:02.885Z,26
2018-03-19T17:30:13.598Z,27
2018-03-19T17:35:05.557Z,27.5
2018-03-19T17:40:10.361Z,28
2018-03-19T17:45:03.320Z,28
2018-03-19T17:50:07.971Z,29.3
2018-03-19T17:55:06.008Z,29.2
2018-03-19T18:00:06.189Z,30.4
2018-03-19T18:05:10.759Z,30.6
2018-03-19T18:10:02.967Z,30.6
2018-03-19T18:15:05.991Z,32.1
2018-03-19T18:20:02.735Z,32
2018-03-19T18:25:10.900Z,33.3
2018-03-19T18:30:03.613Z,33.4
2018-03-19T18:35:05.585Z,34.6
2018-03-19T18:40:18.964Z,35.2
2018-03-19T18:45:10.779Z,36
2018-03-19T18:50:03.395Z,36
2018-03-19T18:55:02.945Z,37.6
2018-03-19T19:00:08.645Z,37.9
2018-03-19T19:05:03.094Z,37.9
2018-03-19T19:10:05.802Z,13.3
2018-03-19T19:15:05.288Z,39.6
2018-03-19T19:20:03.000Z,39.6
2018-03-19T19:25:03.526Z,39.4
2018-03-19T19:30:03.244Z,40.1
2018-03-19T19:35:02.703Z,40.6
2018-03-19T19:40:05.326Z,40.8
2018-03-19T19:45:03.357Z,40.8
2018-03-19T19:50:02.958Z,42
2018-03-19T19:55:13.642Z,42.6
2018-03-19T20:00:03.277Z,42.7
2018-03-19T20:05:07.855Z,43.1
2018-03-19T20:10:05.536Z,44.2
2018-03-19T20:15:03.546Z,44.2
2018-03-19T20:20:03.185Z,44
2018-03-19T20:25:02.730Z,45.3
2018-03-19T20:30:11.865Z,46.9
2018-03-19T20:35:02.811Z,46.9
2018-03-19T20:40:10.466Z,47.7
2018-03-19T20:45:05.220Z,48.8
2018-03-19T20:50:02.787Z,48.8
2018-03-19T20:55:05.900Z,50
2018-03-19T21:00:03.552Z,50
2018-03-19T21:05:08.174Z,50.4
2018-03-19T21:10:05.773Z,50.9
2018-03-19T21:15:15.356Z,51.1
2018-03-19T21:20:10.677Z,52.2
2018-03-19T21:25:03.532Z,52.2
2018-03-19T21:30:03.153Z,52.4
2018-03-19T21:35:02.671Z,53
2018-03-19T21:40:05.278Z,52.7
2018-03-19T21:45:08.355Z,52.8
2018-03-19T21:50:10.562Z,53.5
2018-03-19T21:55:05.973Z,52.8
2018-03-19T22:00:03.545Z,52.8
2018-03-19T22:05:13.239Z,52.4
2018-03-19T22:10:03.245Z,52.4
2018-03-19T22:15:02.886Z,52.6
2018-03-19T22:20:08.541Z,53.4
2018-03-19T22:25:08.201Z,53.7
2018-03-19T22:30:02.718Z,53.7
2018-03-19T22:35:03.283Z,53.6
2018-03-19T22:40:08.685Z,53.2
2018-03-19T22:45:08.199Z,53.7
2018-03-19T22:50:05.296Z,54.3
2018-03-19T22:55:03.331Z,54.4
2018-03-19T23:00:02.946Z,54.6
2018-03-19T23:05:08.536Z,55.1
2018-03-19T23:10:03.598Z,55.1
2018-03-19T23:15:03.216Z,55.2
2018-03-19T23:20:05.425Z,55.8
2018-03-19T23:25:05.962Z,56.5
2018-03-19T23:30:08.721Z,56.5
2018-03-19T23:35:05.573Z,56.6
2018-03-19T23:40:05.258Z,56.6
2018-03-19T23:45:03.262Z,56.6
2018-03-19T23:50:02.882Z,56.3
2018-03-19T23:55:10.989Z,55.9
